Time;durP1;ratioP1;P1;durP2;ratioP2;P2;SDS_P1;SDS_P2;PMS_P1;PMS_P2;Temp;Humidity;BMP_temperature;BMP_pressure;BME280_temperature;BME280_humidity;BME280_pressure;Samples;Min_cycle;Max_cycle;Signal;HPM_P1;HPM_P2
2022/11/25 00:12:39;;;;;;;;;;;;;;;;;;;;;
2022/11/25 00:16:36;;;;;;;;;;;;;;;9.11;57.13;96510.81;4824807;29;19931;-79
2022/11/25 00:19:08;;;;;;;;;;;;;;;9.10;57.36;96504.81;4896379;29;19963;-78
2022/11/25 00:21:37;;;;;;;;;;;;;;;9.12;57.17;96513.31;4948576;28;19973;-79
2022/11/25 00:24:35;;;;;;;;;;;;;;;8.97;57.53;96511.47;4971065;28;19922;-78
2022/11/25 00:27:19;;;;;;;;;;;;;;;9.00;57.71;96499.25;4982445;28;19989;-79
2022/11/25 00:29:49;;;;;;;;;;;;;;;9.00;58.15;96509.56;4970445;28;19993;-78
2022/11/25 00:32:16;;;;;;;;;;;;;;;8.99;57.39;96520.81;4987177;28;19928;-78
2022/11/25 00:34:45;;;;;;;;;;;;;;;8.99;57.45;96507.06;4987124;28;19961;-79
2022/11/25 00:37:12;;;;;;;;;;;;;;;9.02;57.83;96491.44;4954442;28;19921;-78
2022/11/25 00:39:39;;;;;;;;;;;;;;;8.94;58.06;96493.56;4994749;28;19922;-77
2022/11/25 00:44:54;;;;;;;;;;;;;;;8.98;57.43;96502.81;4990366;28;19921;-79
2022/11/25 00:47:21;;;;;;;;;;;;;;;8.95;57.45;96482.31;5022738;28;20309;-78
2022/11/25 00:49:53;;;;;;;;;;;;;;;8.91;57.93;96493.69;5053172;28;20311;-79
2022/11/25 00:52:25;;;;;;;;;;;;;;;8.87;58.60;96481.84;5088067;28;20307;-81
2022/11/25 00:54:52;;;;;;;;;;;;;;;8.90;57.56;96492.03;5088426;28;19920;-80
2022/11/25 00:57:21;;;;;;;;;;;;;;;9.04;57.39;96489.63;5074290;28;19919;-79
2022/11/25 00:59:48;;;;;;;;;;;;;;;8.98;58.19;96487.34;5077415;28;20433;-77
2022/11/25 01:02:16;;;;;;;;;;;;;;;8.99;58.25;96496.75;5070571;28;19926;-79
2022/11/25 01:04:43;;;;;;;;;;;;;;;8.98;58.29;96497.66;5070038;28;20379;-80
2022/11/25 01:07:14;;;;;;;;;;;;;;;9.00;58.40;96499.25;5087121;28;19919;-80
2022/11/25 01:09:42;;;;;;;;;;;;;;;9.06;57.83;96492.97;5070179;28;19999;-78
2022/11/25 01:12:09;;;;;;;;;;;;;;;9.03;57.70;96493.09;5086771;28;20005;-78
2022/11/25 01:14:36;;;;;;;;;;;;;;;9.03;57.46;96487.94;5104034;28;19927;-78
2022/11/25 01:17:03;;;;;;;;;;;;;;;8.97;57.71;96490.81;5069759;28;19927;-77
2022/11/25 01:19:32;;;;;;;;;;;;;;;8.95;58.01;96505.53;5070424;28;19920;-77
2022/11/25 01:21:59;;;;;;;;;;;;;;;8.93;58.37;96497.03;5069680;28;19959;-77
2022/11/25 01:24:25;;;;;;;;;;;;;;;8.89;57.67;96503.25;5069972;28;19920;-78
2022/11/25 01:26:54;;;;;;;;;;;;;;;8.87;57.81;96499.91;5103618;28;19956;-78
2022/11/25 01:29:21;;;;;;;;;;;;;;;8.85;57.41;96504.31;5087814;28;19974;-77
2022/11/25 01:31:49;;;;;;;;;;;;;;;8.88;57.09;96509.34;5087994;28;19920;-78
2022/11/25 01:34:20;;;;;;;;;;;;;;;8.91;56.64;96494.53;5086504;28;20340;-77
2022/11/25 01:36:47;;;;;;;;;;;;;;;8.83;57.16;96509.56;5070189;28;19924;-77
2022/11/25 01:39:19;;;;;;;;;;;;;;;8.86;57.22;96511.16;5088478;28;19927;-77
2022/11/25 01:41:46;;;;;;;;;;;;;;;8.77;57.54;96521.91;5103524;28;19922;-77
2022/11/25 01:44:18;;;;;;;;;;;;;;;8.72;58.07;96513.53;5086061;28;19920;-77
2022/11/25 01:47:03;;;;;;;;;;;;;;;8.66;58.91;96512.09;5088559;28;19970;-77
2022/11/25 01:49:37;;;;;;;;;;;;;;;8.60;59.32;96524.44;5090356;28;19919;-77
2022/11/25 01:52:07;;;;;;;;;;;;;;;8.70;59.15;96513.63;5107992;28;19961;-77
2022/11/25 01:54:52;;;;;;;;;;;;;;;8.70;58.82;96533.41;5090591;28;19927;-77
2022/11/25 01:57:25;;;;;;;;;;;;;;;8.74;58.27;96551.28;5092345;28;20351;-78
2022/11/25 01:59:55;;;;;;;;;;;;;;;8.69;57.76;96540.34;5089556;28;19928;-79
2022/11/25 02:02:22;;;;;;;;;;;;;;;8.71;58.26;96543.69;5108443;28;20378;-78
2022/11/25 02:04:51;;;;;;;;;;;;;;;8.68;58.03;96545.56;5106857;28;20317;-78
2022/11/25 02:07:27;;;;;;;;;;;;;;;8.71;57.82;96532.53;5090044;28;19926;-78
2022/11/25 02:09:55;;;;;;;;;;;;;;;8.75;58.09;96539.22;5089529;28;19926;-77
2022/11/25 02:12:23;;;;;;;;;;;;;;;8.75;57.78;96541.81;5107500;28;19926;-79
2022/11/25 02:15:11;;;;;;;;;;;;;;;8.75;57.90;96549.53;5092746;28;20029;-78
2022/11/25 02:17:39;;;;;;;;;;;;;;;8.79;57.65;96535.59;5089615;28;19927;-78
2022/11/25 02:20:08;;;;;;;;;;;;;;;8.79;56.65;96527.84;5123930;28;20318;-77
2022/11/25 02:22:46;;;;;;;;;;;;;;;8.85;57.04;96519.81;5089333;28;20002;-78
2022/11/25 02:25:20;;;;;;;;;;;;;;;8.83;56.84;96527.63;5089488;28;20452;-79
2022/11/25 02:27:50;;;;;;;;;;;;;;;8.75;57.49;96534.06;5089313;28;19927;-78
2022/11/25 02:30:18;;;;;;;;;;;;;;;8.73;57.06;96554.78;5089096;28;19919;-77
2022/11/25 02:32:47;;;;;;;;;;;;;;;8.84;56.91;96541.38;5072802;28;19942;-77
2022/11/25 02:35:27;;;;;;;;;;;;;;;8.74;57.69;96546.13;5107187;28;19942;-77
2022/11/25 02:37:57;;;;;;;;;;;;;;;8.74;58.01;96538.38;5089327;28;19919;-77
2022/11/25 02:40:27;;;;;;;;;;;;;;;8.75;57.96;96531.47;5072371;28;20018;-77
2022/11/25 02:42:58;;;;;;;;;;;;;;;8.78;57.62;96523.56;5089105;28;20348;-77
2022/11/25 02:45:28;;;;;;;;;;;;;;;8.79;56.95;96535.59;5089403;28;19923;-77
2022/11/25 02:47:58;;;;;;;;;;;;;;;8.72;57.32;96534.19;5088874;28;20010;-78
2022/11/25 02:50:25;;;;;;;;;;;;;;;8.78;57.54;96534.75;5072717;28;19926;-77
2022/11/25 02:52:52;;;;;;;;;;;;;;;8.74;57.62;96527.19;5110189;28;19920;-80
2022/11/25 02:55:20;;;;;;;;;;;;;;;8.63;57.99;96532.91;5107412;28;19926;-79
2022/11/25 02:57:47;;;;;;;;;;;;;;;8.65;57.65;96537.97;5107222;28;19919;-77
2022/11/25 03:00:14;;;;;;;;;;;;;;;8.74;57.47;96522.88;5122991;28;19920;-77
2022/11/25 03:02:42;;;;;;;;;;;;;;;8.75;57.10;96528.91;5107493;28;19969;-79
2022/11/25 03:05:10;;;;;;;;;;;;;;;8.70;57.34;96536.84;5071948;28;19920;-79
2022/11/25 03:07:38;;;;;;;;;;;;;;;8.70;56.79;96543.75;5089552;28;19919;-79
2022/11/25 03:10:05;;;;;;;;;;;;;;;8.68;56.32;96535.22;5105390;28;19919;-78
2022/11/25 03:12:33;;;;;;;;;;;;;;;8.75;56.19;96528.91;5107783;28;19924;-78
2022/11/25 03:15:00;;;;;;;;;;;;;;;8.72;56.39;96535.03;5089719;28;20350;-77
2022/11/25 03:17:29;;;;;;;;;;;;;;;8.74;56.78;96553.00;5093018;28;19927;-80
2022/11/25 03:19:56;;;;;;;;;;;;;;;8.71;56.31;96566.09;5092818;28;19927;-76
2022/11/25 03:22:24;;;;;;;;;;;;;;;8.72;55.94;96545.34;5092373;28;20648;-77
2022/11/25 03:24:51;;;;;;;;;;;;;;;8.74;56.03;96553.00;5093065;28;20020;-77
2022/11/25 03:27:19;;;;;;;;;;;;;;;8.83;56.47;96560.34;5092187;28;20016;-76
2022/11/25 03:29:46;;;;;;;;;;;;;;;8.74;56.17;96573.66;5109816;28;20006;-78
2022/11/25 03:32:14;;;;;;;;;;;;;;;8.77;56.49;96563.22;5092126;28;20306;-78
2022/11/25 03:34:43;;;;;;;;;;;;;;;8.69;56.42;96567.91;5092379;28;19920;-78
2022/11/25 03:37:11;;;;;;;;;;;;;;;8.74;56.17;96569.34;5110601;28;19919;-79
2022/11/25 03:39:39;;;;;;;;;;;;;;;8.74;56.11;96568.50;5092386;28;19920;-78
2022/11/25 03:42:06;;;;;;;;;;;;;;;8.54;56.20;96527.28;5075852;28;19977;-80
2022/11/25 03:44:34;;;;;;;;;;;;;;;8.76;55.97;96577.00;5092519;28;19920;-79
2022/11/25 03:47:02;;;;;;;;;;;;;;;8.70;56.49;96572.97;5110852;28;19920;-79
2022/11/25 03:49:29;;;;;;;;;;;;;;;8.70;56.42;96572.13;5114234;28;19931;-78
2022/11/25 03:51:57;;;;;;;;;;;;;;;8.73;55.92;96553.94;5074892;28;19939;-78
2022/11/25 03:54:24;;;;;;;;;;;;;;;8.76;55.82;96561.53;5092110;28;19931;-78
2022/11/25 03:57:12;;;;;;;;;;;;;;;8.73;55.83;96570.28;5091864;28;19926;-78
2022/11/25 03:59:39;;;;;;;;;;;;;;;8.60;56.42;96563.13;5110861;28;19920;-79
2022/11/25 04:02:06;;;;;;;;;;;;;;;8.60;55.90;96563.13;5091623;28;19927;-79
2022/11/25 04:04:34;;;;;;;;;;;;;;;8.63;55.85;96563.00;5092208;28;19943;-78
2022/11/25 04:07:02;;;;;;;;;;;;;;;8.65;55.94;96564.63;5125946;27;20382;-82
2022/11/25 04:09:30;;;;;;;;;;;;;;;8.69;55.80;96555.00;5091886;28;19920;-80
2022/11/25 04:14:53;;;;;;;;;;;;;;;8.63;55.27;96558.69;5091131;28;20385;-80
2022/11/25 04:17:25;;;;;;;;;;;;;;;8.61;55.04;96557.09;5092542;28;20441;-78
2022/11/25 04:19:52;;;;;;;;;;;;;;;8.63;55.25;96560.44;5092017;28;19920;-80
2022/11/25 04:22:19;;;;;;;;;;;;;;;8.44;54.70;96531.22;5074637;28;19919;-79
2022/11/25 04:24:48;;;;;;;;;;;;;;;8.72;53.97;96578.91;5091372;28;19973;-79
2022/11/25 04:27:20;;;;;;;;;;;;;;;8.76;54.17;96577.00;5107383;28;19920;-79
2022/11/25 04:29:49;;;;;;;;;;;;;;;8.83;53.21;96586.16;5109746;28;19919;-80
2022/11/25 04:32:19;;;;;;;;;;;;;;;8.79;53.66;96588.06;5091158;28;19959;-80
2022/11/25 04:34:46;;;;;;;;;;;;;;;8.89;53.46;96583.28;5108374;28;19919;-78
2022/11/25 04:37:14;;;;;;;;;;;;;;;8.84;53.42;96593.03;5082521;28;20026;-77
2022/11/25 04:39:42;;;;;;;;;;;;;;;8.91;53.03;96591.81;5082344;28;19969;-77
2022/11/25 04:42:31;;;;;;;;;;;;;;;8.91;52.81;96602.13;5095610;28;19920;-77
2022/11/25 04:45:05;;;;;;;;;;;;;;;8.98;52.30;96608.72;5073331;28;19943;-80
2022/11/25 04:47:52;;;;;;;;;;;;;;;8.99;52.58;96615.53;5095833;28;19924;-78
2022/11/25 04:50:21;;;;;;;;;;;;;;;9.03;51.90;96622.22;5126003;27;19994;-78
2022/11/25 04:53:02;;;;;;;;;;;;;;;9.02;51.72;96610.25;5089067;28;19920;-78
2022/11/25 04:55:29;;;;;;;;;;;;;;;8.96;52.48;96618.28;5095406;28;20387;-77
2022/11/25 04:57:59;;;;;;;;;;;;;;;9.06;52.31;96609.19;5094842;28;19976;-78
2022/11/25 05:00:30;;;;;;;;;;;;;;;9.13;51.65;96602.00;5115601;27;19926;-79
2022/11/25 05:02:57;;;;;;;;;;;;;;;9.16;51.78;96612.16;5090513;28;19943;-78
2022/11/25 05:05:24;;;;;;;;;;;;;;;9.19;51.98;96612.84;5090843;28;19920;-79
2022/11/25 05:07:51;;;;;;;;;;;;;;;9.28;52.01;96627.94;5090751;28;20014;-77
2022/11/25 05:10:19;;;;;;;;;;;;;;;9.22;52.06;96632.53;5090314;28;19924;-77
2022/11/25 05:12:49;;;;;;;;;;;;;;;9.20;52.66;96631.78;5108032;28;19951;-78
2022/11/25 05:15:19;;;;;;;;;;;;;;;9.16;53.15;96635.41;5090201;28;20291;-76
2022/11/25 05:17:47;;;;;;;;;;;;;;;9.14;52.78;96639.81;5095958;28;19927;-78
2022/11/25 05:20:24;;;;;;;;;;;;;;;9.17;53.66;96655.19;5079564;27;19963;-76
2022/11/25 05:22:53;;;;;;;;;;;;;;;9.05;53.33;96635.09;5084361;28;20001;-78
2022/11/25 05:25:23;;;;;;;;;;;;;;;8.29;52.87;96519.00;5089901;28;19926;-78
2022/11/25 05:28:06;;;;;;;;;;;;;;;9.01;53.45;96666.22;5053043;28;19950;-76
2022/11/25 05:30:34;;;;;;;;;;;;;;;9.07;53.90;96654.75;5070469;28;19931;-79
2022/11/25 05:33:02;;;;;;;;;;;;;;;9.00;53.74;96671.44;5090799;28;19930;-80
2022/11/25 05:35:30;;;;;;;;;;;;;;;8.93;54.11;96660.56;5107432;28;19966;-80
2022/11/25 05:37:59;;;;;;;;;;;;;;;8.85;54.66;96675.56;5089660;28;19959;-80
2022/11/25 05:40:27;;;;;;;;;;;;;;;8.82;54.60;96662.78;5095171;28;20287;-79
2022/11/25 05:43:01;;;;;;;;;;;;;;;8.77;54.83;96687.13;5090372;28;19920;-79
2022/11/25 05:45:33;;;;;;;;;;;;;;;8.76;54.64;96672.53;5090379;28;19920;-78
2022/11/25 05:48:02;;;;;;;;;;;;;;;8.84;54.67;96685.97;5089919;28;20398;-80
2022/11/25 05:50:31;;;;;;;;;;;;;;;8.84;55.24;96683.38;5089909;28;19920;-80
2022/11/25 05:53:20;;;;;;;;;;;;;;;8.83;54.98;96681.69;5107937;28;20302;-79
2022/11/25 05:55:55;;;;;;;;;;;;;;;8.73;55.38;96695.91;5090371;28;19930;-78
2022/11/25 05:58:42;;;;;;;;;;;;;;;8.69;55.26;96726.19;5106446;28;20492;-81
2022/11/25 06:01:11;;;;;;;;;;;;;;;8.73;55.15;96709.66;5106733;28;19959;-79
2022/11/25 06:03:38;;;;;;;;;;;;;;;8.76;55.50;96722.44;5089068;28;20038;-80
2022/11/25 06:06:09;;;;;;;;;;;;;;;8.78;55.47;96735.25;5107894;28;19969;-80
2022/11/25 06:08:38;;;;;;;;;;;;;;;8.69;55.63;96726.19;5106069;28;20007;-79
2022/11/25 06:11:10;;;;;;;;;;;;;;;8.77;56.62;96743.94;5090929;28;20023;-79
2022/11/25 06:13:38;;;;;;;;;;;;;;;8.66;56.23;96744.38;5073849;28;19930;-80
2022/11/25 06:16:08;;;;;;;;;;;;;;;8.64;56.29;96753.09;5107547;28;20574;-80
2022/11/25 06:18:37;;;;;;;;;;;;;;;8.70;56.33;96742.50;5090501;28;20391;-79
2022/11/25 06:21:08;;;;;;;;;;;;;;;8.71;56.94;96754.50;5109569;28;19920;-78
2022/11/25 06:23:36;;;;;;;;;;;;;;;8.70;56.55;96756.25;5106818;28;19926;-80
2022/11/25 06:26:06;;;;;;;;;;;;;;;8.75;56.21;96748.31;5089052;28;19919;-79
2022/11/25 06:28:36;;;;;;;;;;;;;;;8.68;56.73;96764.97;5090511;28;19923;-79
2022/11/25 06:31:09;;;;;;;;;;;;;;;8.59;56.99;96757.63;5107724;28;20014;-78
2022/11/25 06:33:48;;;;;;;;;;;;;;;8.69;57.64;96772.66;5089975;28;19934;-78
2022/11/25 06:36:16;;;;;;;;;;;;;;;8.65;56.89;96778.84;5073814;28;19920;-79
2022/11/25 06:38:47;;;;;;;;;;;;;;;8.73;57.17;96770.78;5112562;28;19949;-80
2022/11/25 06:41:14;;;;;;;;;;;;;;;8.65;57.50;96783.19;5090249;28;20018;-78
2022/11/25 06:43:43;;;;;;;;;;;;;;;8.64;57.21;96773.75;5106696;28;19931;-79
2022/11/25 06:46:14;;;;;;;;;;;;;;;8.73;57.47;96766.47;5107752;28;20339;-78
2022/11/25 06:48:54;;;;;;;;;;;;;;;8.74;56.93;96775.88;5089861;28;20402;-80
2022/11/25 06:51:27;;;;;;;;;;;;;;;8.65;57.94;96801.25;5110947;28;19993;-79
2022/11/25 06:53:54;;;;;;;;;;;;;;;8.70;57.71;96781.22;5112683;28;19920;-82
2022/11/25 06:56:26;;;;;;;;;;;;;;;8.79;57.56;96779.09;5110228;28;19983;-79
2022/11/25 06:58:55;;;;;;;;;;;;;;;8.68;57.82;96775.28;5113335;28;20387;-80
2022/11/25 07:01:24;;;;;;;;;;;;;;;8.75;57.59;96781.88;5113723;28;20283;-79
2022/11/25 07:03:58;;;;;;;;;;;;;;;8.77;57.94;96774.91;5094087;28;20315;-79
2022/11/25 07:06:30;;;;;;;;;;;;;;;8.76;58.10;96780.97;5077845;28;20510;-80
2022/11/25 07:08:59;;;;;;;;;;;;;;;8.69;57.89;96795.03;5111953;28;20313;-79
2022/11/25 07:11:28;;;;;;;;;;;;;;;8.84;58.41;96787.47;5093345;28;20315;-79
2022/11/25 07:14:10;;;;;;;;;;;;;;;8.82;57.89;96803.97;5095214;28;19920;-79
2022/11/25 07:16:42;;;;;;;;;;;;;;;8.71;58.08;96804.41;5093737;28;19959;-80
2022/11/25 07:19:12;;;;;;;;;;;;;;;8.69;58.43;96823.44;5110920;28;19919;-79
2022/11/25 07:21:42;;;;;;;;;;;;;;;8.68;58.48;96814.00;5094481;28;19927;-79
2022/11/25 07:24:15;;;;;;;;;;;;;;;8.81;58.46;96813.44;5094542;28;19980;-76
2022/11/25 07:26:45;;;;;;;;;;;;;;;8.94;58.70;96829.25;5094398;28;20524;-79
2022/11/25 07:29:15;;;;;;;;;;;;;;;8.86;58.25;96821.81;5094197;28;19926;-80
2022/11/25 07:32:05;;;;;;;;;;;;;;;8.98;58.53;96841.13;5112448;28;19981;-78
2022/11/25 07:34:38;;;;;;;;;;;;;;;8.93;58.57;96843.06;5113240;28;19920;-79
2022/11/25 07:37:06;;;;;;;;;;;;;;;8.99;58.67;96837.63;5099128;28;20048;-78
2022/11/25 07:39:34;;;;;;;;;;;;;;;8.96;58.40;96863.59;5111254;27;19919;-78
2022/11/25 07:42:05;;;;;;;;;;;;;;;8.98;58.98;96846.28;5110909;28;20026;-78
2022/11/25 07:44:32;;;;;;;;;;;;;;;9.07;58.26;96861.38;5096110;28;19969;-79
2022/11/25 07:47:15;;;;;;;;;;;;;;;9.03;58.70;96852.94;5093098;28;20018;-78
2022/11/25 07:49:43;;;;;;;;;;;;;;;9.22;57.89;96862.47;5110063;28;19929;-78
2022/11/25 07:52:12;;;;;;;;;;;;;;;9.26;57.72;96870.03;5109811;28;19924;-80
2022/11/25 07:54:41;;;;;;;;;;;;;;;9.33;57.28;96871.47;5092067;28;19920;-79
2022/11/25 07:57:09;;;;;;;;;;;;;;;9.53;57.69;96871.41;5110208;28;19945;-79
2022/11/25 07:59:40;;;;;;;;;;;;;;;9.56;56.66;96871.25;5108923;28;19920;-78
2022/11/25 08:02:09;;;;;;;;;;;;;;;9.55;56.48;96869.59;5107508;28;19923;-79
2022/11/25 08:04:38;;;;;;;;;;;;;;;9.45;57.17;96881.25;5109757;28;19919;-78
2022/11/25 08:07:05;;;;;;;;;;;;;;;9.57;56.76;96878.13;5091440;28;19923;-78
2022/11/25 08:09:33;;;;;;;;;;;;;;;9.54;56.91;96880.81;5108188;28;20445;-79
2022/11/25 08:12:02;;;;;;;;;;;;;;;9.61;55.92;96878.81;5108221;28;19920;-79
2022/11/25 08:14:33;;;;;;;;;;;;;;;9.62;56.22;96886.50;5108882;28;19920;-80
2022/11/25 08:17:03;;;;;;;;;;;;;;;9.73;55.77;96891.19;5110373;28;19927;-79
2022/11/25 08:19:31;;;;;;;;;;;;;;;9.50;55.88;96902.56;5108112;28;19955;-79
2022/11/25 08:21:59;;;;;;;;;;;;;;;9.67;55.83;96902.66;5109726;28;20007;-79
2022/11/25 08:24:32;;;;;;;;;;;;;;;9.71;55.58;96893.84;5090789;28;20018;-78
2022/11/25 08:27:00;;;;;;;;;;;;;;;9.72;55.95;96902.47;5108096;28;19959;-77
2022/11/25 08:29:28;;;;;;;;;;;;;;;9.74;55.91;96905.81;5095881;28;19920;-79
2022/11/25 08:31:58;;;;;;;;;;;;;;;9.70;55.48;96905.13;5109779;28;20384;-79
2022/11/25 08:34:25;;;;;;;;;;;;;;;9.69;55.33;96913.78;5079017;28;19927;-81
2022/11/25 08:36:59;;;;;;;;;;;;;;;9.71;55.39;96911.09;5107475;28;19920;-78
2022/11/25 08:39:29;;;;;;;;;;;;;;;9.70;55.13;96915.47;5107596;28;19920;-78
2022/11/25 08:42:25;;;;;;;;;;;;;;;9.64;55.66;96925.22;5110724;28;19959;-78
2022/11/25 08:45:24;;;;;;;;;;;;;;;9.60;55.82;96924.50;5109179;28;19926;-80
2022/11/25 08:47:51;;;;;;;;;;;;;;;9.45;56.35;96925.19;5090667;28;19934;-77
2022/11/25 08:50:19;;;;;;;;;;;;;;;9.61;55.89;96930.53;5107637;28;20275;-77
2022/11/25 08:52:46;;;;;;;;;;;;;;;9.69;56.02;96918.09;5107358;28;19959;-79
2022/11/25 08:55:13;;;;;;;;;;;;;;;9.75;55.24;96929.00;5073626;28;19920;-80
2022/11/25 08:57:42;;;;;;;;;;;;;;;9.82;55.25;96925.25;5108437;28;20322;-78
2022/11/25 09:00:10;;;;;;;;;;;;;;;9.54;55.92;96934.31;5091149;28;19965;-79
2022/11/25 09:02:38;;;;;;;;;;;;;;;9.44;56.18;96928.66;5108458;28;19920;-77
2022/11/25 09:05:06;;;;;;;;;;;;;;;9.44;55.61;96928.66;5107857;28;19927;-78
2022/11/25 09:07:33;;;;;;;;;;;;;;;9.70;55.55;96920.63;5090433;28;20903;-79
2022/11/25 09:10:01;;;;;;;;;;;;;;;9.89;55.37;96919.81;5108427;28;19920;-78
2022/11/25 09:12:31;;;;;;;;;;;;;;;9.83;54.66;96920.91;5108368;28;19976;-79
2022/11/25 09:15:02;;;;;;;;;;;;;;;9.80;55.08;96927.06;5090370;28;19930;-78
2022/11/25 09:17:29;;;;;;;;;;;;;;;9.77;55.15;96916.84;5107556;28;19951;-79
2022/11/25 09:20:00;;;;;;;;;;;;;;;9.81;54.99;96913.22;5108158;28;19919;-78
2022/11/25 09:22:28;;;;;;;;;;;;;;;10.04;54.35;96917.34;5108637;28;19928;-78
2022/11/25 09:24:56;;;;;;;;;;;;;;;10.25;53.82;96900.03;5108239;28;19927;-79
2022/11/25 09:27:24;;;;;;;;;;;;;;;10.43;53.81;96905.19;5107974;28;20374;-81
2022/11/25 09:29:51;;;;;;;;;;;;;;;10.42;53.09;96895.75;5089947;28;20292;-78
2022/11/25 09:32:18;;;;;;;;;;;;;;;10.27;53.43;96890.44;5108505;28;20574;-79
2022/11/25 09:34:45;;;;;;;;;;;;;;;10.55;51.91;96903.78;5111020;28;19926;-79
2022/11/25 09:37:14;;;;;;;;;;;;;;;10.93;51.02;96902.75;5108157;28;19923;-78
2022/11/25 09:39:41;;;;;;;;;;;;;;;11.32;49.66;96894.72;5106733;28;19962;-78
2022/11/25 09:48:12;;;;;;;;;;;;;;;11.48;49.19;96893.88;5107553;28;19920;-78
2022/11/25 09:50:44;;;;;;;;;;;;;;;10.98;50.26;96895.59;5107752;28;20014;-79
2022/11/25 09:53:31;;;;;;;;;;;;;;;10.89;50.34;96887.44;5107724;28;20417;-79
2022/11/25 09:56:02;;;;;;;;;;;;;;;10.98;51.10;96895.59;5106439;28;19993;-78
2022/11/25 09:58:33;;;;;;;;;;;;;;;10.86;50.86;96891.00;5106257;28;19963;-79
2022/11/25 10:01:11;;;;;;;;;;;;;;;10.92;50.20;96890.69;5089008;28;20014;-78
2022/11/25 10:03:42;;;;;;;;;;;;;;;11.10;49.66;96889.81;5106640;28;20571;-77
2022/11/25 10:06:22;;;;;;;;;;;;;;;11.03;49.87;96888.44;5089240;28;20349;-79
2022/11/25 10:08:54;;;;;;;;;;;;;;;11.04;50.11;96895.28;5088999;28;19919;-79
2022/11/25 10:11:23;;;;;;;;;;;;;;;11.12;50.16;96880.19;5089586;28;19928;-78
2022/11/25 10:17:43;;;;;;;;;;;;;;;11.30;49.83;96892.22;5108923;28;19919;-78
2022/11/25 10:20:13;;;;;;;;;;;;;;;11.52;48.52;96896.31;5110515;28;19924;-78
2022/11/25 10:22:45;;;;;;;;;;;;;;;11.64;48.53;96891.34;5089035;28;19920;-80
2022/11/25 10:25:27;;;;;;;;;;;;;;;11.71;47.93;96894.44;5089758;28;20004;-81
2022/11/25 10:27:58;;;;;;;;;;;;;;;11.55;48.04;96902.16;5111593;28;20015;-80
2022/11/25 10:30:40;;;;;;;;;;;;;;;11.74;47.55;96912.47;5111864;28;20040;-80
2022/11/25 10:33:19;;;;;;;;;;;;;;;11.50;48.44;96914.53;5115484;28;19927;-80
2022/11/25 10:35:59;;;;;;;;;;;;;;;11.46;47.14;96882.72;5111383;28;19920;-81
2022/11/25 10:38:42;;;;;;;;;;;;;;;11.73;48.00;96879.66;5111355;28;19919;-78
2022/11/25 10:41:16;;;;;;;;;;;;;;;11.68;47.32;96881.66;5093321;28;19926;-80
2022/11/25 10:43:48;;;;;;;;;;;;;;;11.53;47.96;96897.97;5111264;28;19919;-81
2022/11/25 10:46:29;;;;;;;;;;;;;;;11.54;47.82;96892.69;5091257;28;20014;-79
2022/11/25 10:49:30;;;;;;;;;;;;;;;11.52;46.43;96897.13;5110847;28;20394;-79
2022/11/25 10:52:11;;;;;;;;;;;;;;;11.73;46.70;96898.66;5111604;28;19968;-79
2022/11/25 10:54:39;;;;;;;;;;;;;;;11.58;46.69;96899.41;5112115;28;19941;-77
2022/11/25 10:57:19;;;;;;;;;;;;;;;11.62;47.13;96900.09;5109671;28;19923;-79
2022/11/25 10:59:57;;;;;;;;;;;;;;;11.61;46.25;96891.47;5059425;28;19970;-77
2022/11/25 11:02:37;;;;;;;;;;;;;;;11.59;46.91;96910.63;5092348;28;19919;-79
2022/11/25 11:05:09;;;;;;;;;;;;;;;11.41;46.14;96889.94;5109423;28;19919;-78
2022/11/25 11:07:38;;;;;;;;;;;;;;;11.21;47.33;96897.88;5092610;28;20023;-77
2022/11/25 11:10:23;;;;;;;;;;;;;;;11.23;46.38;96890.84;5110300;28;19987;-79
2022/11/25 11:12:56;;;;;;;;;;;;;;;11.39;45.63;96896.09;5092498;28;19919;-78
2022/11/25 11:15:29;;;;;;;;;;;;;;;11.26;45.94;96857.00;5109217;28;19926;-79
2022/11/25 11:18:01;;;;;;;;;;;;;;;11.43;45.16;96897.63;5110584;28;20347;-80
2022/11/25 11:20:33;;;;;;;;;;;;;;;11.84;44.69;96908.47;5092643;28;19927;-78
2022/11/25 11:23:12;;;;;;;;;;;;;;;11.84;44.42;96898.09;5092788;28;19926;-81
2022/11/25 11:25:47;;;;;;;;;;;;;;;11.84;44.03;96903.28;5059267;28;19968;-80
2022/11/25 11:28:37;;;;;;;;;;;;;;;11.67;45.24;96904.16;5110281;28;19924;-79
2022/11/25 11:31:18;;;;;;;;;;;;;;;11.94;44.16;96909.66;5092526;28;19984;-78
2022/11/25 11:34:10;;;;;;;;;;;;;;;11.81;44.72;96908.66;5098417;28;19962;-80
2022/11/25 11:36:41;;;;;;;;;;;;;;;11.96;45.16;96897.44;5089200;28;19927;-79
2022/11/25 11:39:35;;;;;;;;;;;;;;;11.62;45.22;96907.88;5110667;28;19926;-80
2022/11/25 11:42:26;;;;;;;;;;;;;;;11.79;45.46;96911.28;5086076;28;20303;-80
2022/11/25 11:45:14;;;;;;;;;;;;;;;11.75;44.92;96911.53;5108361;28;20523;-80
2022/11/25 11:47:48;;;;;;;;;;;;;;;11.58;45.41;96919.34;5108730;28;19969;-80
2022/11/25 11:50:16;;;;;;;;;;;;;;;11.61;44.79;96919.16;5110283;28;20410;-78
2022/11/25 11:53:11;;;;;;;;;;;;;;;11.62;44.81;96932.06;5110259;28;19919;-78
2022/11/25 11:55:47;;;;;;;;;;;;;;;11.66;45.04;96920.66;5090363;28;20362;-82
2022/11/25 11:58:43;;;;;;;;;;;;;;;11.48;45.65;96918.94;5110187;28;19957;-80
2022/11/25 12:01:29;;;;;;;;;;;;;;;11.37;45.20;96921.28;5107905;28;19919;-79
2022/11/25 12:03:58;;;;;;;;;;;;;;;11.28;45.37;96919.97;5109938;28;20394;-80
2022/11/25 12:06:35;;;;;;;;;;;;;;;11.03;46.30;96929.03;5092395;28;19942;-79
2022/11/25 12:09:07;;;;;;;;;;;;;;;11.17;45.61;96927.44;5090987;28;19955;-80
2022/11/25 12:11:36;;;;;;;;;;;;;;;11.40;46.06;96927.13;5109595;28;19920;-79
2022/11/25 12:17:44;;;;;;;;;;;;;;;11.63;45.17;96935.47;5110793;28;19930;-81
2022/11/25 12:20:18;;;;;;;;;;;;;;;11.53;44.62;96942.06;5075271;28;19919;-80
2022/11/25 12:22:52;;;;;;;;;;;;;;;11.50;45.28;96931.88;5091552;28;20009;-77
2022/11/25 12:25:25;;;;;;;;;;;;;;;11.58;45.15;96938.31;5110109;28;19945;-78
2022/11/25 12:27:57;;;;;;;;;;;;;;;11.48;45.58;96923.31;5103509;28;19977;-79
2022/11/25 12:30:36;;;;;;;;;;;;;;;11.74;44.87;96912.47;5090883;28;20019;-78
2022/11/25 12:33:20;;;;;;;;;;;;;;;11.93;43.98;96919.19;5093498;28;19920;-79
2022/11/25 12:36:08;;;;;;;;;;;;;;;12.15;44.15;96924.94;5093271;28;20031;-77
2022/11/25 12:38:40;;;;;;;;;;;;;;;12.01;43.78;96931.78;5091361;28;19967;-78
2022/11/25 12:41:29;;;;;;;;;;;;;;;11.92;43.80;96924.47;5108981;28;20053;-79
2022/11/25 12:43:57;;;;;;;;;;;;;;;11.96;43.90;96929.41;5109609;28;19926;-78
2022/11/25 12:46:25;;;;;;;;;;;;;;;11.93;44.21;96928.75;5108825;28;19919;-78
2022/11/25 12:48:55;;;;;;;;;;;;;;;11.99;43.78;96933.63;5108948;28;19998;-80
2022/11/25 12:51:45;;;;;;;;;;;;;;;11.80;43.57;96951.06;5109155;28;19919;-79
2022/11/25 12:54:15;;;;;;;;;;;;;;;11.79;43.73;96942.44;5090451;28;19931;-78
2022/11/25 12:56:56;;;;;;;;;;;;;;;11.76;44.39;96980.66;5090991;28;19961;-79
2022/11/25 12:59:46;;;;;;;;;;;;;;;11.70;44.56;96952.47;5091315;28;19919;-79
2022/11/25 13:02:29;;;;;;;;;;;;;;;11.50;44.58;96961.19;5098080;28;19919;-81
2022/11/25 13:05:11;;;;;;;;;;;;;;;11.39;44.92;96960.94;5090436;28;20194;-79
2022/11/25 13:08:10;;;;;;;;;;;;;;;11.48;44.86;96971.66;5108572;28;19923;-79
2022/11/25 13:10:44;;;;;;;;;;;;;;;11.43;44.71;96965.88;5089723;28;20391;-80
2022/11/25 13:13:11;;;;;;;;;;;;;;;11.43;44.08;96959.84;5107188;28;19919;-79
2022/11/25 13:15:50;;;;;;;;;;;;;;;11.38;44.55;96959.22;5107354;28;19920;-81
2022/11/25 13:18:25;;;;;;;;;;;;;;;11.26;45.53;96971.06;5107723;28;19928;-80
2022/11/25 13:21:04;;;;;;;;;;;;;;;11.20;45.57;96955.81;5108345;28;19955;-78
2022/11/25 13:23:39;;;;;;;;;;;;;;;11.09;45.79;96963.28;5108089;28;19927;-78
2022/11/25 13:26:33;;;;;;;;;;;;;;;11.00;45.72;96958.56;5108032;28;20347;-78
2022/11/25 13:29:40;;;;;;;;;;;;;;;11.05;46.00;96969.50;5107261;28;20423;-80
2022/11/25 13:32:49;;;;;;;;;;;;;;;10.93;46.45;96985.66;5108209;28;19920;-78
2022/11/25 13:35:27;;;;;;;;;;;;;;;10.92;46.19;96985.75;5095959;28;19965;-81
2022/11/25 13:37:54;;;;;;;;;;;;;;;10.89;46.24;96984.13;5107152;28;19920;-80
2022/11/25 13:40:25;;;;;;;;;;;;;;;10.82;46.24;96987.91;5088405;28;19930;-80
2022/11/25 13:42:54;;;;;;;;;;;;;;;10.83;46.83;96997.38;5106474;28;20040;-79
2022/11/25 13:45:25;;;;;;;;;;;;;;;10.83;46.54;96993.94;5106930;28;19919;-79
2022/11/25 13:48:05;;;;;;;;;;;;;;;10.80;46.74;97001.88;5089457;28;20370;-78
2022/11/25 13:50:34;;;;;;;;;;;;;;;10.73;47.06;97003.91;5056601;28;19926;-78
2022/11/25 13:53:24;;;;;;;;;;;;;;;10.72;47.00;97007.38;5108235;28;19926;-79
2022/11/25 13:56:13;;;;;;;;;;;;;;;10.65;47.26;97014.59;5089786;28;19919;-78